createdAt,value
2023-04-15T00:01:06.026Z,98732.62
2023-04-15T00:04:09.646Z,98731.94
2023-04-15T00:07:13.022Z,98731.62
2023-04-15T00:10:16.244Z,98733.13
2023-04-15T00:13:19.143Z,98735.91
2023-04-15T00:16:22.661Z,98732.31
2023-04-15T00:19:25.644Z,98733.38
2023-04-15T00:22:28.761Z,98743.13
2023-04-15T00:25:31.869Z,98736.09
2023-04-15T00:28:35.516Z,98732.00
2023-04-15T00:31:39.833Z,98731.19
2023-04-15T00:34:43.069Z,98730.50
2023-04-15T00:37:46.577Z,98729.41
2023-04-15T00:40:50.088Z,98722.97
2023-04-15T00:43:53.090Z,98724.78
2023-04-15T00:46:57.401Z,98726.53
2023-04-15T00:50:00.295Z,98717.22
2023-04-15T00:53:03.536Z,98728.41
2023-04-15T00:56:07.095Z,98722.34
2023-04-15T00:59:10.402Z,98719.16
2023-04-15T01:02:13.432Z,98716.16
2023-04-15T01:05:18.638Z,98723.59
2023-04-15T01:08:21.610Z,98718.47
2023-04-15T01:11:25.406Z,98719.22
2023-04-15T01:14:29.194Z,98712.69
2023-04-15T01:17:33.422Z,98723.88
2023-04-15T01:20:36.539Z,98718.56
2023-04-15T01:23:40.500Z,98712.84
2023-04-15T01:26:44.660Z,98723.00
2023-04-15T01:29:48.383Z,98725.69
2023-04-15T01:32:52.010Z,98724.59
2023-04-15T01:35:55.880Z,98726.94
2023-04-15T01:39:01.234Z,98723.38
2023-04-15T01:42:04.661Z,98721.94
2023-04-15T01:45:08.429Z,98720.03
2023-04-15T01:48:14.044Z,98710.75
2023-04-15T01:51:16.905Z,98721.28
2023-04-15T01:54:20.232Z,98712.47
2023-04-15T01:57:23.327Z,98724.47
2023-04-15T02:00:27.693Z,98724.06
2023-04-15T02:03:31.041Z,98737.78
2023-04-15T02:06:34.319Z,98736.91
2023-04-15T02:09:38.812Z,98738.25
2023-04-15T02:12:44.171Z,98742.78
2023-04-15T02:15:49.053Z,98742.47
2023-04-15T02:18:55.141Z,98740.47
2023-04-15T02:21:58.035Z,98746.94
2023-04-15T02:25:02.135Z,98748.34
2023-04-15T02:28:06.475Z,98743.41
2023-04-15T02:31:09.838Z,98734.63
2023-04-15T02:34:14.493Z,98738.47
2023-04-15T02:37:20.575Z,98737.19
2023-04-15T02:40:23.635Z,98740.38
2023-04-15T02:43:26.684Z,98742.66
2023-04-15T02:46:29.608Z,98732.69
2023-04-15T02:49:33.970Z,98727.19
2023-04-15T02:52:36.801Z,98728.84
2023-04-15T02:55:40.386Z,98729.59
2023-04-15T02:58:45.274Z,98727.31
2023-04-15T03:01:48.639Z,98729.75
2023-04-15T03:04:51.956Z,98724.41
2023-04-15T03:07:55.595Z,98729.47
2023-04-15T03:11:01.022Z,98720.78
2023-04-15T03:14:05.540Z,98724.62
2023-04-15T03:17:08.872Z,98720.53
2023-04-15T03:20:14.539Z,98734.50
2023-04-15T03:23:17.813Z,98728.00
2023-04-15T03:26:27.726Z,98724.19
2023-04-15T03:29:31.252Z,98726.47
2023-04-15T03:32:35.283Z,98723.44
2023-04-15T03:35:38.224Z,98710.31
2023-04-15T03:38:41.497Z,98715.78
2023-04-15T03:41:44.480Z,98726.59
2023-04-15T03:44:47.668Z,98731.28
2023-04-15T03:47:50.719Z,98725.50
2023-04-15T03:50:54.227Z,98739.81
2023-04-15T03:53:57.196Z,98725.53
2023-04-15T03:57:00.391Z,98729.03
2023-04-15T04:00:03.334Z,98722.94
2023-04-15T04:03:14.890Z,98724.44
2023-04-15T04:06:18.317Z,98727.94
2023-04-15T04:09:21.214Z,98726.44
2023-04-15T04:12:24.381Z,98724.09
2023-04-15T04:15:27.394Z,98716.72
2023-04-15T04:18:34.908Z,98725.22
2023-04-15T04:21:39.779Z,98729.44
2023-04-15T04:24:44.091Z,98723.28
2023-04-15T04:27:47.227Z,98729.81
2023-04-15T04:30:51.206Z,98732.12
2023-04-15T04:33:54.088Z,98737.19
2023-04-15T04:36:57.420Z,98739.34
2023-04-15T04:40:00.496Z,98732.75
2023-04-15T04:43:03.688Z,98734.88
2023-04-15T04:46:06.599Z,98724.91
2023-04-15T04:49:10.140Z,98734.13
2023-04-15T04:52:13.311Z,98734.88
2023-04-15T04:55:16.868Z,98749.88
2023-04-15T04:58:19.773Z,98734.56
2023-04-15T05:01:23.078Z,98737.38
2023-04-15T05:04:26.652Z,98735.53
2023-04-15T05:07:29.869Z,98727.16
2023-04-15T05:10:32.989Z,98725.34
2023-04-15T05:13:38.843Z,98740.75
2023-04-15T05:16:42.245Z,98732.84
2023-04-15T05:19:45.566Z,98746.28
2023-04-15T05:22:48.560Z,98739.50
2023-04-15T05:25:52.381Z,98739.50
2023-04-15T05:28:55.258Z,98746.84
2023-04-15T05:31:58.541Z,98740.34
2023-04-15T05:35:01.710Z,98739.25
2023-04-15T05:38:04.853Z,98742.75
2023-04-15T05:41:07.863Z,98744.31
2023-04-15T05:44:11.185Z,98752.06
2023-04-15T05:47:14.086Z,98741.38
2023-04-15T05:50:17.336Z,98751.84
2023-04-15T05:53:20.858Z,98755.31
2023-04-15T05:56:24.148Z,98748.03
2023-04-15T05:59:28.553Z,98763.91
2023-04-15T06:02:33.476Z,98760.03
2023-04-15T06:05:36.907Z,98770.88
2023-04-15T06:08:40.109Z,98777.44
2023-04-15T06:11:43.293Z,98778.56
2023-04-15T06:14:46.238Z,98781.28
2023-04-15T06:17:49.469Z,98784.38
2023-04-15T06:20:52.415Z,98785.53
2023-04-15T06:23:56.759Z,98784.00
2023-04-15T06:26:59.679Z,98792.06
2023-04-15T06:30:03.065Z,98788.53
2023-04-15T06:33:06.437Z,98799.75
2023-04-15T06:36:09.728Z,98793.59
2023-04-15T06:39:12.582Z,98793.28
2023-04-15T06:42:16.322Z,98792.47
2023-04-15T06:45:20.695Z,98794.44
2023-04-15T06:48:26.597Z,98795.97
2023-04-15T06:51:29.415Z,98800.19
2023-04-15T06:54:34.060Z,98805.22
2023-04-15T06:57:37.072Z,98805.97
2023-04-15T07:00:40.813Z,98809.44
2023-04-15T07:03:43.724Z,98809.84
2023-04-15T07:06:47.996Z,98818.69
2023-04-15T07:09:51.423Z,98807.06
2023-04-15T07:12:54.854Z,98815.19
2023-04-15T07:15:57.807Z,98824.63
2023-04-15T07:19:01.368Z,98822.31
2023-04-15T07:22:04.989Z,98828.09
2023-04-15T07:25:09.112Z,98827.22
2023-04-15T07:28:12.127Z,98822.38
2023-04-15T07:31:16.644Z,98819.06
2023-04-15T07:34:21.105Z,98821.50
2023-04-15T07:37:25.760Z,98825.38
2023-04-15T07:40:29.201Z,98830.06
2023-04-15T07:43:32.865Z,98834.56
2023-04-15T07:46:37.444Z,98835.78
2023-04-15T07:49:43.424Z,98839.00
2023-04-15T07:52:46.502Z,98831.03
2023-04-15T07:55:49.825Z,98839.41
2023-04-15T07:58:52.831Z,98834.72
2023-04-15T08:01:56.249Z,98840.00
2023-04-15T08:05:00.000Z,98842.03
2023-04-15T08:08:03.103Z,98839.84
2023-04-15T08:11:06.445Z,98847.25
2023-04-15T08:14:09.386Z,98842.56
2023-04-15T08:17:12.663Z,98838.69
2023-04-15T08:20:15.656Z,98849.25
2023-04-15T08:23:19.591Z,98841.13
2023-04-15T08:26:23.031Z,98851.56
2023-04-15T08:29:27.448Z,98847.69
2023-04-15T08:32:31.624Z,98865.06
2023-04-15T08:35:34.808Z,98864.38
2023-04-15T08:38:37.792Z,98862.78
2023-04-15T08:41:48.054Z,98871.63
2023-04-15T08:44:52.047Z,98866.56
2023-04-15T08:47:56.895Z,98860.28
2023-04-15T08:51:00.266Z,98875.78
2023-04-15T08:54:03.766Z,98863.00
2023-04-15T08:57:06.937Z,98870.38
2023-04-15T09:00:10.756Z,98871.16
2023-04-15T09:03:13.919Z,98868.38
2023-04-15T09:06:18.287Z,98862.53
2023-04-15T09:09:21.196Z,98871.28
2023-04-15T09:12:24.415Z,98867.66
2023-04-15T09:15:30.105Z,98870.72
2023-04-15T09:18:35.060Z,98867.16
2023-04-15T09:21:37.906Z,98868.06
2023-04-15T09:24:43.394Z,98866.81
2023-04-15T09:27:51.093Z,98869.66
2023-04-15T09:31:01.948Z,98870.84
2023-04-15T09:34:07.034Z,98874.88
2023-04-15T09:37:11.348Z,98869.97
2023-04-15T09:40:14.469Z,98860.75
2023-04-15T09:43:18.031Z,98863.63
2023-04-15T09:46:21.150Z,98861.66
2023-04-15T09:49:25.747Z,98866.31
2023-04-15T09:52:29.138Z,98855.91
2023-04-15T09:55:33.583Z,98862.81
2023-04-15T09:58:38.912Z,98860.06
2023-04-15T10:01:43.028Z,98862.50
2023-04-15T10:04:48.809Z,98854.78
2023-04-15T10:07:52.205Z,98865.25
2023-04-15T10:10:56.252Z,98862.19
2023-04-15T10:13:59.288Z,98870.38
2023-04-15T10:17:03.554Z,98871.88
2023-04-15T10:20:07.769Z,98880.06
2023-04-15T10:23:13.366Z,98872.22
2023-04-15T10:26:20.127Z,98875.13
2023-04-15T10:29:27.886Z,98873.66
2023-04-15T10:32:31.306Z,98876.84
2023-04-15T10:35:34.718Z,98880.69
2023-04-15T10:38:42.646Z,98879.56
2023-04-15T10:41:45.884Z,98872.25
2023-04-15T10:44:53.527Z,98872.22
2023-04-15T10:47:58.212Z,98874.34
2023-04-15T10:51:02.641Z,98872.41
2023-04-15T10:54:10.638Z,98877.91
2023-04-15T10:57:24.146Z,98876.31
2023-04-15T11:00:30.567Z,98882.88
2023-04-15T11:03:41.933Z,98872.91
2023-04-15T11:06:46.629Z,98878.84
2023-04-15T11:09:49.493Z,98890.22
2023-04-15T11:12:58.092Z,98886.31
2023-04-15T11:16:03.383Z,98896.87
2023-04-15T11:19:07.186Z,98889.81
2023-04-15T11:22:11.078Z,98888.09
2023-04-15T11:25:26.723Z,98899.97
2023-04-15T11:28:30.620Z,98900.31
2023-04-15T11:31:33.813Z,98893.84
2023-04-15T11:34:37.794Z,98894.28
2023-04-15T11:37:40.946Z,98904.31
2023-04-15T11:40:46.797Z,98913.94
2023-04-15T11:43:51.319Z,98910.31
2023-04-15T11:46:56.640Z,98909.88
2023-04-15T11:50:15.168Z,98908.66
2023-04-15T11:53:18.069Z,98914.66
2023-04-15T11:56:25.830Z,98917.78
2023-04-15T11:59:45.323Z,98916.44
2023-04-15T12:02:49.423Z,98914.59
2023-04-15T12:06:12.510Z,98911.66
2023-04-15T12:09:20.443Z,98923.06
2023-04-15T12:12:28.740Z,98915.06
2023-04-15T12:15:31.665Z,98921.63
2023-04-15T12:18:34.884Z,98916.22
2023-04-15T12:21:40.099Z,98919.53
2023-04-15T12:24:44.522Z,98912.03
2023-04-15T12:27:54.761Z,98916.56
2023-04-15T12:30:58.022Z,98918.66
2023-04-15T12:34:01.330Z,98923.44
2023-04-15T12:37:06.467Z,98924.00
2023-04-15T12:40:09.707Z,98926.63
2023-04-15T12:43:12.860Z,98922.44
2023-04-15T12:46:15.967Z,98928.19
2023-04-15T12:49:21.112Z,98920.16
2023-04-15T12:52:25.254Z,98921.56
2023-04-15T12:55:28.633Z,98927.06
2023-04-15T12:58:31.703Z,98926.75
2023-04-15T13:01:34.965Z,98931.41
2023-04-15T13:04:37.860Z,98932.13
2023-04-15T13:07:41.110Z,98947.38
2023-04-15T13:10:44.074Z,98943.50
2023-04-15T13:13:47.382Z,98944.94
2023-04-15T13:16:50.645Z,98956.16
2023-04-15T13:19:53.876Z,98948.69
2023-04-15T13:22:56.951Z,98948.13
2023-04-15T13:26:00.344Z,98956.84
2023-04-15T13:29:03.282Z,98952.22
2023-04-15T13:32:07.508Z,98957.34
2023-04-15T13:35:10.478Z,98962.31
2023-04-15T13:38:13.597Z,98957.19
2023-04-15T13:41:16.629Z,98953.38
2023-04-15T13:44:22.106Z,98954.34
2023-04-15T13:47:25.490Z,98957.87
2023-04-15T13:50:29.209Z,98962.28
2023-04-15T13:53:37.941Z,98963.34
2023-04-15T13:56:42.451Z,98970.66
2023-04-15T13:59:45.842Z,98969.56
2023-04-15T14:02:49.206Z,98967.84
2023-04-15T14:05:56.136Z,98973.16
2023-04-15T14:08:59.198Z,98980.19
2023-04-15T14:12:02.671Z,98983.75
2023-04-15T14:15:06.228Z,98981.53
2023-04-15T14:18:09.597Z,98973.69
2023-04-15T14:21:12.542Z,98977.69
2023-04-15T14:24:16.449Z,98978.34
2023-04-15T14:27:19.569Z,98987.59
2023-04-15T14:30:23.366Z,98985.16
2023-04-15T14:33:26.466Z,98995.84
2023-04-15T14:36:29.884Z,99000.06
2023-04-15T14:39:32.956Z,98992.41
2023-04-15T14:42:37.003Z,98997.25
2023-04-15T14:45:42.208Z,98997.69
2023-04-15T14:48:48.029Z,98999.00
2023-04-15T14:51:51.237Z,98996.28
2023-04-15T14:54:54.367Z,99003.44
2023-04-15T14:57:57.343Z,99010.97
2023-04-15T15:01:02.076Z,99000.22
2023-04-15T15:04:05.225Z,99015.56
2023-04-15T15:07:08.424Z,99018.47
2023-04-15T15:10:11.288Z,99020.78
2023-04-15T15:13:15.109Z,99019.38
2023-04-15T15:16:18.600Z,99021.88
2023-04-15T15:19:22.514Z,99033.97
2023-04-15T15:22:26.282Z,99035.53
2023-04-15T15:25:29.580Z,99036.00
2023-04-15T15:28:32.530Z,99043.03
2023-04-15T15:31:36.256Z,99043.00
2023-04-15T15:34:39.429Z,99053.75
2023-04-15T15:37:43.458Z,99057.63
2023-04-15T15:40:46.414Z,99060.78
2023-04-15T15:43:49.725Z,99060.31
2023-04-15T15:46:52.732Z,99056.09
2023-04-15T15:49:55.863Z,99058.41
2023-04-15T15:52:59.091Z,99055.78
2023-04-15T15:56:05.469Z,99070.94
2023-04-15T15:59:09.158Z,99069.00
2023-04-15T16:02:14.551Z,99058.88
2023-04-15T16:05:18.163Z,99061.47
2023-04-15T16:08:21.584Z,99061.59
2023-04-15T16:11:24.954Z,99068.06
2023-04-15T16:14:28.411Z,99070.41
2023-04-15T16:17:32.620Z,99071.97
2023-04-15T16:20:35.838Z,99074.72
2023-04-15T16:23:39.120Z,99085.22
2023-04-15T16:26:42.403Z,99084.34
2023-04-15T16:29:45.756Z,99089.56
2023-04-15T16:32:48.856Z,99088.63
2023-04-15T16:35:53.121Z,99096.47
2023-04-15T16:38:56.810Z,99094.19
2023-04-15T16:42:00.483Z,99104.34
2023-04-15T16:45:03.413Z,99095.44
2023-04-15T16:48:12.386Z,99105.12
2023-04-15T16:51:15.602Z,99105.12
2023-04-15T16:54:19.585Z,99107.06
2023-04-15T16:57:22.520Z,99121.41
2023-04-15T17:00:28.958Z,99123.34
2023-04-15T17:03:32.376Z,99129.53
2023-04-15T17:06:37.143Z,99123.31
2023-04-15T17:09:40.577Z,99129.53
2023-04-15T17:12:53.065Z,99139.59
2023-04-15T17:15:56.287Z,99138.06
2023-04-15T17:19:00.600Z,99146.56
2023-04-15T17:25:25.751Z,99151.19
2023-04-15T17:28:42.012Z,99156.63
2023-04-15T17:35:02.042Z,99158.94
2023-04-15T17:38:05.550Z,99173.59
2023-04-15T17:41:10.696Z,99177.78
2023-04-15T17:44:34.039Z,99173.47
2023-04-15T17:47:37.229Z,99179.28
2023-04-15T17:50:53.940Z,99189.16
2023-04-15T17:53:57.117Z,99192.22
2023-04-15T17:57:01.539Z,99205.41
2023-04-15T18:00:06.286Z,99204.53
2023-04-15T18:03:15.726Z,99202.09
2023-04-15T18:06:22.555Z,99210.97
2023-04-15T18:09:27.760Z,99220.56
2023-04-15T18:12:31.567Z,99220.56
2023-04-15T18:15:35.394Z,99227.44
2023-04-15T18:18:39.736Z,99235.44
2023-04-15T18:21:43.271Z,99230.38
2023-04-15T18:24:47.419Z,99236.34
2023-04-15T18:27:51.448Z,99238.34
2023-04-15T18:30:57.115Z,99240.59
2023-04-15T18:34:00.782Z,99242.88
2023-04-15T18:37:08.070Z,99249.03
2023-04-15T18:40:12.321Z,99253.31
2023-04-15T18:43:16.276Z,99262.19
2023-04-15T18:46:20.921Z,99264.88
2023-04-15T18:49:24.773Z,99272.13
2023-04-15T18:52:28.789Z,99270.19
2023-04-15T18:55:34.988Z,99279.06
2023-04-15T18:59:08.576Z,99286.81
2023-04-15T19:02:03.686Z,99282.94
2023-04-15T19:05:07.525Z,99294.13
2023-04-15T19:08:13.170Z,99295.69
2023-04-15T19:11:17.443Z,99302.59
2023-04-15T19:14:21.844Z,99303.75
2023-04-15T19:17:25.764Z,99309.63
2023-04-15T19:20:29.837Z,99315.78
2023-04-15T19:23:33.972Z,99318.91
2023-04-15T19:26:39.239Z,99315.81
2023-04-15T19:29:43.207Z,99321.25
2023-04-15T19:32:47.295Z,99332.50
2023-04-15T19:35:51.968Z,99328.97
2023-04-15T19:38:56.791Z,99329.44
2023-04-15T19:42:10.036Z,99340.31
2023-04-15T19:45:14.156Z,99347.34
2023-04-15T19:48:19.833Z,99337.66
2023-04-15T19:51:24.319Z,99339.56
2023-04-15T19:54:28.421Z,99346.13
2023-04-15T19:57:34.649Z,99342.66
2023-04-15T20:00:40.259Z,99354.28
2023-04-15T20:03:44.546Z,99356.22
2023-04-15T20:06:49.419Z,99350.41
2023-04-15T20:09:54.073Z,99351.59
2023-04-15T20:12:58.169Z,99356.50
2023-04-15T20:16:02.786Z,99361.41
2023-04-15T20:19:09.955Z,99366.16
2023-04-15T20:22:13.817Z,99370.72
2023-04-15T20:25:17.802Z,99372.53
2023-04-15T20:28:25.364Z,99375.37
2023-04-15T20:31:29.065Z,99366.47
2023-04-15T20:34:32.488Z,99375.37
2023-04-15T20:37:38.219Z,99378.91
2023-04-15T20:40:43.692Z,99384.59
2023-04-15T20:43:47.540Z,99382.31
2023-04-15T20:46:52.720Z,99389.28
2023-04-15T20:49:56.300Z,99385.13
2023-04-15T20:53:00.132Z,99390.91
2023-04-15T20:56:03.392Z,99393.31
2023-04-15T20:59:07.080Z,99397.19
2023-04-15T21:02:11.027Z,99393.31
2023-04-15T21:05:14.750Z,99409.91
2023-04-15T21:08:17.631Z,99417.69
2023-04-15T21:11:38.776Z,99421.59
2023-04-15T21:14:43.988Z,99422.28
2023-04-15T21:17:48.596Z,99426.09
2023-04-15T21:20:58.378Z,99424.97
2023-04-15T21:24:01.578Z,99433.06
2023-04-15T21:27:06.025Z,99428.38
2023-04-15T21:30:11.142Z,99416.38
2023-04-15T21:33:14.103Z,99424.81
2023-04-15T21:36:18.432Z,99429.03
2023-04-15T21:39:21.714Z,99423.19
2023-04-15T21:42:25.034Z,99433.66
2023-04-15T21:45:28.106Z,99432.06
2023-04-15T21:48:31.767Z,99443.28
2023-04-15T21:51:34.750Z,99437.44
2023-04-15T21:54:38.189Z,99446.69
2023-04-15T21:57:41.095Z,99450.53
2023-04-15T22:00:44.381Z,99452.09
2023-04-15T22:03:47.772Z,99456.31
2023-04-15T22:06:52.335Z,99450.03
2023-04-15T22:09:55.601Z,99459.28
2023-04-15T22:13:02.882Z,99455.72
2023-04-15T22:16:06.281Z,99458.81
2023-04-15T22:19:10.824Z,99461.09
2023-04-15T22:22:14.037Z,99464.56
2023-04-15T22:25:17.401Z,99462.66
2023-04-15T22:28:20.661Z,99466.50
2023-04-15T22:31:23.576Z,99461.09
2023-04-15T22:34:26.824Z,99468.06
2023-04-15T22:37:30.892Z,99473.78
2023-04-15T22:40:34.477Z,99470.66
2023-04-15T22:43:37.472Z,99469.63
2023-04-15T22:46:41.241Z,99475.06
2023-04-15T22:49:45.079Z,99470.97
2023-04-15T22:52:48.785Z,99477.16
2023-04-15T22:55:52.120Z,99479.12
2023-04-15T22:58:55.452Z,99474.84
2023-04-15T23:01:59.536Z,99480.25
2023-04-15T23:05:11.820Z,99480.69
2023-04-15T23:08:16.474Z,99486.09
2023-04-15T23:11:19.702Z,99487.16
2023-04-15T23:14:23.181Z,99490.19
2023-04-15T23:17:26.868Z,99491.31
2023-04-15T23:20:29.813Z,99489.34
2023-04-15T23:23:33.624Z,99487.38
2023-04-15T23:26:36.514Z,99488.09
2023-04-15T23:29:39.748Z,99490.69
2023-04-15T23:32:42.838Z,99488.63
2023-04-15T23:35:46.668Z,99482.41
2023-04-15T23:38:49.549Z,99486.22
2023-04-15T23:41:53.217Z,99479.28
2023-04-15T23:44:56.413Z,99492.47
2023-04-15T23:47:59.745Z,99494.03
2023-04-15T23:51:02.798Z,99498.66
2023-04-15T23:54:06.128Z,99491.56
2023-04-15T23:57:09.146Z,99492.09
